createdAt,value
2019-05-05T00:00:44.617Z,9.12
2019-05-05T00:03:34.760Z,9.09
2019-05-05T00:06:05.329Z,9.05
2019-05-05T00:08:35.230Z,9.06
2019-05-05T00:11:15.378Z,9.05
2019-05-05T00:13:50.037Z,9.03
2019-05-05T00:16:37.173Z,8.99
2019-05-05T00:19:06.697Z,8.97
2019-05-05T00:21:36.051Z,8.94
2019-05-05T00:24:05.390Z,8.92
2019-05-05T00:26:34.994Z,8.91
2019-05-05T00:29:04.552Z,8.88
2019-05-05T00:31:34.913Z,8.85
2019-05-05T00:34:05.133Z,8.84
2019-05-05T00:36:35.335Z,8.83
2019-05-05T00:39:07.174Z,8.81
2019-05-05T00:41:36.530Z,8.79
2019-05-05T00:44:05.972Z,8.78
2019-05-05T00:46:54.905Z,8.77
2019-05-05T00:49:25.109Z,8.70
2019-05-05T00:51:54.736Z,8.66
2019-05-05T00:54:24.455Z,8.64
2019-05-05T00:56:54.477Z,8.62
2019-05-05T00:59:25.691Z,8.61
2019-05-05T01:02:10.639Z,8.60
2019-05-05T01:04:52.143Z,8.59
2019-05-05T01:07:21.495Z,8.57
2019-05-05T01:09:50.816Z,8.56
2019-05-05T01:12:21.498Z,8.55
2019-05-05T01:14:50.960Z,8.55
2019-05-05T01:17:20.295Z,8.53
2019-05-05T01:20:01.175Z,8.52
2019-05-05T01:22:20.930Z,8.48
2019-05-05T01:24:50.279Z,8.47
2019-05-05T01:27:19.701Z,8.43
2019-05-05T01:29:49.033Z,8.40
2019-05-05T01:32:24.657Z,8.36
2019-05-05T01:34:54.912Z,8.26
2019-05-05T01:37:34.860Z,8.19
2019-05-05T01:40:14.160Z,8.17
2019-05-05T01:42:44.708Z,8.15
2019-05-05T01:45:14.965Z,8.15
2019-05-05T01:47:45.267Z,8.10
2019-05-05T01:50:20.618Z,8.07
2019-05-05T01:52:45.821Z,8.04
2019-05-05T01:55:15.187Z,8.01
2019-05-05T01:57:45.145Z,7.95
2019-05-05T02:00:14.939Z,7.91
2019-05-05T02:02:44.992Z,7.88
2019-05-05T02:05:14.938Z,7.84
2019-05-05T02:07:44.853Z,7.81
2019-05-05T02:10:15.436Z,7.80
2019-05-05T02:12:44.897Z,7.80
2019-05-05T02:15:15.021Z,7.76
2019-05-05T02:17:44.758Z,7.71
2019-05-05T02:20:40.001Z,7.68
2019-05-05T02:23:10.563Z,7.62
2019-05-05T02:25:40.022Z,7.60
2019-05-05T02:28:09.434Z,7.58
2019-05-05T02:30:48.998Z,7.57
2019-05-05T02:33:18.361Z,7.54
2019-05-05T02:35:47.724Z,7.43
2019-05-05T02:38:18.455Z,7.36
2019-05-05T02:40:48.568Z,7.34
2019-05-05T02:43:19.265Z,7.34
2019-05-05T02:46:20.660Z,7.31
2019-05-05T02:48:54.879Z,7.29
2019-05-05T02:51:26.084Z,7.25
2019-05-05T02:53:57.037Z,7.18
2019-05-05T02:56:34.198Z,7.14
2019-05-05T02:59:08.049Z,7.14
2019-05-05T03:01:48.005Z,7.14
2019-05-05T03:04:18.547Z,7.14
2019-05-05T03:06:51.297Z,7.11
2019-05-05T03:09:21.747Z,7.07
2019-05-05T03:11:54.239Z,7.01
2019-05-05T03:14:24.975Z,6.98
2019-05-05T03:16:54.679Z,6.95
2019-05-05T03:19:25.532Z,6.93
2019-05-05T03:21:55.565Z,6.88
2019-05-05T03:24:24.928Z,6.84
2019-05-05T03:26:55.564Z,6.79
2019-05-05T03:29:25.626Z,6.75
2019-05-05T03:31:56.281Z,6.70
2019-05-05T03:34:25.999Z,6.66
2019-05-05T03:36:55.328Z,6.63
2019-05-05T03:39:26.546Z,6.60
2019-05-05T03:42:27.870Z,6.58
2019-05-05T03:45:07.116Z,6.54
2019-05-05T03:47:37.661Z,6.49
2019-05-05T03:50:07.488Z,6.44
2019-05-05T03:52:37.030Z,6.46
2019-05-05T03:55:07.381Z,6.43
2019-05-05T03:57:36.925Z,6.40
2019-05-05T04:00:07.508Z,6.39
2019-05-05T04:03:06.882Z,6.34
2019-05-05T04:05:44.485Z,6.28
2019-05-05T04:08:14.474Z,6.26
2019-05-05T04:10:44.636Z,6.25
2019-05-05T04:13:14.391Z,6.26
2019-05-05T04:15:45.971Z,6.23
2019-05-05T04:18:24.918Z,6.20
2019-05-05T04:20:54.221Z,6.19
2019-05-05T04:23:24.542Z,6.17
2019-05-05T04:25:54.474Z,6.15
2019-05-05T04:28:24.162Z,6.14
2019-05-05T04:30:53.710Z,6.09
2019-05-05T04:33:23.706Z,6.07
2019-05-05T04:35:54.546Z,6.06
2019-05-05T04:38:24.358Z,6.02
2019-05-05T04:40:54.234Z,6.00
2019-05-05T04:43:24.614Z,5.97
2019-05-05T04:45:54.204Z,5.94
2019-05-05T04:48:34.528Z,5.92
2019-05-05T04:51:13.868Z,5.88
2019-05-05T04:54:01.163Z,5.85
2019-05-05T04:56:30.829Z,5.86
2019-05-05T04:59:03.848Z,5.84
2019-05-05T05:01:33.562Z,5.81
2019-05-05T05:04:11.128Z,5.79
2019-05-05T05:06:47.074Z,5.79
2019-05-05T05:09:16.411Z,5.78
2019-05-05T05:11:45.718Z,5.77
2019-05-05T05:14:15.072Z,5.77
2019-05-05T05:16:44.873Z,5.75
2019-05-05T05:19:14.203Z,5.74
2019-05-05T05:21:57.660Z,5.76
2019-05-05T05:24:15.345Z,5.75
2019-05-05T05:26:44.686Z,5.75
2019-05-05T05:29:15.043Z,5.75
2019-05-05T05:31:44.522Z,5.74
2019-05-05T05:34:14.855Z,5.72
2019-05-05T05:36:44.461Z,5.73
2019-05-05T05:39:24.617Z,5.74
2019-05-05T05:41:54.679Z,5.76
2019-05-05T05:44:41.612Z,5.79
2019-05-05T05:47:18.710Z,5.81
2019-05-05T05:49:54.438Z,5.81
2019-05-05T05:52:24.354Z,5.83
2019-05-05T05:54:53.858Z,5.83
2019-05-05T05:57:24.058Z,5.84
2019-05-05T05:59:54.873Z,5.83
2019-05-05T06:02:24.363Z,5.82
2019-05-05T06:04:59.982Z,5.86
2019-05-05T06:07:29.319Z,5.87
2019-05-05T06:09:58.657Z,5.90
2019-05-05T06:12:27.974Z,5.90
2019-05-05T06:14:59.145Z,5.92
2019-05-05T06:17:28.561Z,5.94
2019-05-05T06:19:58.074Z,5.99
2019-05-05T06:22:29.343Z,6.03
2019-05-05T06:24:58.493Z,6.05
2019-05-05T06:27:27.851Z,6.06
2019-05-05T06:29:57.203Z,6.07
2019-05-05T06:32:26.546Z,6.10
2019-05-05T06:34:55.899Z,6.13
2019-05-05T06:37:25.207Z,6.17
2019-05-05T06:39:57.161Z,6.21
2019-05-05T06:42:34.316Z,6.25
2019-05-05T06:45:21.230Z,6.30
2019-05-05T06:47:50.589Z,6.33
2019-05-05T06:50:20.041Z,6.33
2019-05-05T06:52:49.399Z,6.38
2019-05-05T06:55:18.749Z,6.41
2019-05-05T06:57:48.107Z,6.44
2019-05-05T07:00:17.451Z,6.48
2019-05-05T07:02:46.765Z,6.49
2019-05-05T07:05:16.591Z,6.51
2019-05-05T07:07:45.924Z,6.55
2019-05-05T07:10:15.252Z,6.57
2019-05-05T07:12:44.612Z,6.58
2019-05-05T07:15:14.634Z,6.63
2019-05-05T07:17:45.491Z,6.68
2019-05-05T07:20:15.526Z,6.72
2019-05-05T07:22:58.045Z,6.77
2019-05-05T07:25:15.892Z,6.82
2019-05-05T07:27:45.251Z,6.86
2019-05-05T07:30:16.458Z,6.92
2019-05-05T07:32:45.776Z,6.95
2019-05-05T07:35:21.138Z,7.00
2019-05-05T07:37:50.484Z,7.06
2019-05-05T07:40:20.845Z,7.11
2019-05-05T07:42:50.181Z,7.16
2019-05-05T07:45:22.974Z,7.24
2019-05-05T07:47:50.603Z,7.31
2019-05-05T07:50:31.674Z,7.36
2019-05-05T07:52:50.973Z,7.42
2019-05-05T07:55:20.309Z,7.50
2019-05-05T07:57:49.633Z,7.55
2019-05-05T08:00:19.173Z,7.61
2019-05-05T08:02:48.482Z,7.68
2019-05-05T08:05:17.867Z,7.76
2019-05-05T08:07:47.213Z,7.85
2019-05-05T08:10:16.578Z,7.91
2019-05-05T08:12:47.129Z,7.98
2019-05-05T08:15:18.575Z,8.04
2019-05-05T08:18:19.774Z,8.12
2019-05-05T08:20:53.591Z,8.17
2019-05-05T08:23:44.700Z,8.24
2019-05-05T08:26:36.112Z,8.31
2019-05-05T08:29:23.919Z,8.40
2019-05-05T08:31:58.210Z,8.54
2019-05-05T08:34:27.548Z,8.66
2019-05-05T08:36:59.663Z,8.76
2019-05-05T08:39:27.917Z,8.84
2019-05-05T08:41:57.322Z,8.92
2019-05-05T08:44:26.648Z,9.01
2019-05-05T08:46:56.014Z,9.12
2019-05-05T08:49:25.390Z,9.19
2019-05-05T08:51:54.874Z,9.29
2019-05-05T08:54:24.357Z,9.40
2019-05-05T08:56:54.957Z,9.52
2019-05-05T08:59:24.448Z,9.65
2019-05-05T09:01:54.228Z,9.81
2019-05-05T09:04:24.661Z,9.92
2019-05-05T09:06:54.358Z,9.98
2019-05-05T09:09:24.239Z,10.04
2019-05-05T09:11:54.275Z,10.00
2019-05-05T09:14:24.058Z,9.93
2019-05-05T09:16:53.778Z,9.88
2019-05-05T09:19:23.976Z,9.90
2019-05-05T09:21:54.145Z,9.93
2019-05-05T09:24:35.141Z,9.96
2019-05-05T09:27:16.917Z,10.00
2019-05-05T09:29:46.300Z,10.08
2019-05-05T09:32:15.647Z,10.14
2019-05-05T09:34:44.995Z,10.24
2019-05-05T09:37:14.535Z,10.28
2019-05-05T09:39:43.991Z,10.30
2019-05-05T09:42:14.485Z,10.34
2019-05-05T09:44:44.117Z,10.33
2019-05-05T09:47:13.882Z,10.24
2019-05-05T09:49:44.550Z,10.26
2019-05-05T09:52:14.205Z,10.30
2019-05-05T09:54:43.981Z,10.36
2019-05-05T09:57:14.543Z,10.37
2019-05-05T09:59:44.404Z,10.37
2019-05-05T10:02:13.830Z,10.39
2019-05-05T10:04:44.063Z,10.41
2019-05-05T10:07:13.927Z,10.47
2019-05-05T10:09:43.874Z,10.50
2019-05-05T10:12:13.244Z,10.51
2019-05-05T10:14:44.725Z,10.53
2019-05-05T10:17:14.190Z,10.55
2019-05-05T10:19:44.081Z,10.58
2019-05-05T10:22:14.782Z,10.64
2019-05-05T10:24:57.368Z,10.69
2019-05-05T10:27:25.973Z,10.73
2019-05-05T10:29:55.360Z,10.79
2019-05-05T10:32:24.719Z,10.80
2019-05-05T10:35:04.481Z,10.85
2019-05-05T10:37:34.672Z,10.86
2019-05-05T10:40:04.684Z,10.90
2019-05-05T10:42:53.948Z,10.90
2019-05-05T10:45:24.478Z,10.92
2019-05-05T10:47:54.102Z,11.04
2019-05-05T10:50:24.662Z,11.04
2019-05-05T10:52:54.263Z,11.09
2019-05-05T10:55:24.008Z,11.15
2019-05-05T10:57:54.373Z,11.21
2019-05-05T11:00:47.168Z,11.23
2019-05-05T11:03:16.692Z,11.25
2019-05-05T11:05:46.258Z,11.28
2019-05-05T11:08:15.823Z,11.43
2019-05-05T11:10:45.368Z,11.43
2019-05-05T11:13:14.765Z,11.45
2019-05-05T11:15:44.564Z,11.47
2019-05-05T11:18:14.706Z,11.51
2019-05-05T11:20:44.939Z,11.53
2019-05-05T11:23:15.182Z,11.60
2019-05-05T11:25:44.749Z,11.62
2019-05-05T11:28:14.095Z,11.67
2019-05-05T11:30:44.958Z,11.71
2019-05-05T11:33:31.828Z,11.80
2019-05-05T11:36:35.357Z,11.80
2019-05-05T11:39:06.440Z,11.86
2019-05-05T11:41:35.808Z,11.99
2019-05-05T11:44:05.479Z,12.04
2019-05-05T11:46:34.816Z,12.04
2019-05-05T11:49:04.945Z,12.09
2019-05-05T11:51:34.434Z,12.21
2019-05-05T11:54:04.671Z,12.21
2019-05-05T11:56:34.110Z,12.29
2019-05-05T11:59:04.034Z,12.41
2019-05-05T12:01:33.399Z,12.49
2019-05-05T12:04:04.393Z,12.55
2019-05-05T12:06:34.058Z,12.55
2019-05-05T12:09:07.079Z,12.67
2019-05-05T12:11:36.445Z,12.78
2019-05-05T12:14:07.789Z,12.84
2019-05-05T12:16:37.177Z,12.86
2019-05-05T12:19:10.665Z,12.84
2019-05-05T12:21:40.033Z,12.84
2019-05-05T12:24:16.487Z,12.99
2019-05-05T12:26:56.651Z,13.06
2019-05-05T12:29:28.733Z,13.06
2019-05-05T12:31:58.134Z,13.16
2019-05-05T12:34:28.923Z,13.25
2019-05-05T12:36:58.274Z,13.28
2019-05-05T12:39:27.630Z,13.39
2019-05-05T12:41:56.972Z,13.41
2019-05-05T12:44:31.296Z,13.45
2019-05-05T12:47:18.285Z,13.50
2019-05-05T12:49:47.663Z,13.52
2019-05-05T12:52:17.064Z,13.63
2019-05-05T12:54:46.401Z,13.61
2019-05-05T12:57:15.777Z,13.60
2019-05-05T12:59:45.266Z,13.61
2019-05-05T13:02:14.620Z,13.60
2019-05-05T13:04:43.979Z,13.61
2019-05-05T13:07:13.729Z,13.66
2019-05-05T13:09:44.093Z,13.79
2019-05-05T13:12:15.046Z,13.85
2019-05-05T13:14:44.515Z,13.90
2019-05-05T13:17:14.252Z,13.93
2019-05-05T13:19:58.845Z,14.00
2019-05-05T13:22:59.407Z,14.04
2019-05-05T13:25:59.600Z,14.16
2019-05-05T13:28:28.915Z,14.24
2019-05-05T13:30:58.320Z,14.34
2019-05-05T13:33:27.710Z,14.38
2019-05-05T13:35:57.038Z,14.37
2019-05-05T13:38:27.427Z,14.33
2019-05-05T13:40:56.738Z,14.32
2019-05-05T13:43:26.060Z,14.34
2019-05-05T13:46:07.341Z,14.33
2019-05-05T13:48:36.677Z,14.43
2019-05-05T13:51:06.907Z,14.49
2019-05-05T13:53:36.238Z,14.53
2019-05-05T13:56:12.022Z,14.55
2019-05-05T13:58:36.816Z,14.59
2019-05-05T14:01:06.160Z,14.68
2019-05-05T14:03:35.524Z,14.75
2019-05-05T14:06:04.907Z,14.78
2019-05-05T14:08:36.393Z,14.75
2019-05-05T14:11:05.448Z,14.78
2019-05-05T14:13:34.808Z,14.70
2019-05-05T14:16:04.149Z,14.68
2019-05-05T14:18:33.507Z,14.80
2019-05-05T14:21:02.874Z,14.88
2019-05-05T14:23:34.539Z,14.89
2019-05-05T14:26:04.019Z,14.98
2019-05-05T14:28:34.020Z,15.05
2019-05-05T14:31:25.818Z,15.09
2019-05-05T14:33:57.461Z,15.11
2019-05-05T14:36:48.740Z,15.12
2019-05-05T14:39:19.133Z,15.16
2019-05-05T14:41:48.494Z,15.21
2019-05-05T14:44:17.837Z,15.17
2019-05-05T14:46:47.305Z,15.18
2019-05-05T14:49:16.652Z,15.23
2019-05-05T14:51:45.995Z,15.27
2019-05-05T14:54:15.351Z,15.28
2019-05-05T14:56:44.766Z,15.43
2019-05-05T14:59:14.383Z,15.43
2019-05-05T15:01:44.680Z,15.37
2019-05-05T15:04:15.913Z,15.37
2019-05-05T15:06:57.821Z,15.36
2019-05-05T15:09:48.821Z,15.34
2019-05-05T15:12:35.039Z,15.46
2019-05-05T15:15:07.337Z,15.46
2019-05-05T15:17:36.359Z,15.40
2019-05-05T15:20:07.111Z,15.43
2019-05-05T15:22:36.484Z,15.55
2019-05-05T15:25:06.279Z,15.64
2019-05-05T15:27:35.630Z,15.64
2019-05-05T15:30:05.608Z,15.70
2019-05-05T15:32:34.968Z,15.67
2019-05-05T15:35:04.490Z,15.81
2019-05-05T15:37:33.844Z,15.92
2019-05-05T15:40:04.023Z,15.91
2019-05-05T15:42:34.592Z,15.96
2019-05-05T15:45:04.202Z,15.96
2019-05-05T15:47:34.297Z,15.95
2019-05-05T15:50:04.428Z,16.01
2019-05-05T15:52:35.137Z,16.01
2019-05-05T15:55:05.092Z,15.97
2019-05-05T15:57:34.439Z,16.33
2019-05-05T16:00:03.906Z,16.33
2019-05-05T16:02:35.885Z,16.52
2019-05-05T16:05:04.585Z,16.58
2019-05-05T16:07:34.074Z,16.80
2019-05-05T16:10:04.103Z,16.80
2019-05-05T16:12:36.499Z,16.88
2019-05-05T16:15:27.683Z,16.94
2019-05-05T16:18:31.137Z,17.00
2019-05-05T16:21:27.933Z,17.14
2019-05-05T16:24:03.524Z,17.43
2019-05-05T16:26:32.957Z,17.47
2019-05-05T16:29:04.153Z,17.55
2019-05-05T16:31:34.227Z,17.48
2019-05-05T16:34:03.917Z,17.41
2019-05-05T16:36:33.597Z,17.22
2019-05-05T16:39:02.967Z,17.19
2019-05-05T16:41:34.024Z,17.22
2019-05-05T16:44:03.573Z,17.15
2019-05-05T16:46:35.202Z,17.21
2019-05-05T16:49:04.894Z,17.21
2019-05-05T16:51:37.634Z,17.12
2019-05-05T16:54:13.713Z,17.06
2019-05-05T16:56:44.159Z,17.08
2019-05-05T16:59:13.842Z,17.10
2019-05-05T17:01:44.746Z,17.08
2019-05-05T17:04:14.392Z,17.07
2019-05-05T17:06:45.703Z,16.98
2019-05-05T17:09:15.060Z,16.97
2019-05-05T17:12:03.460Z,16.97
2019-05-05T17:14:40.848Z,16.91
2019-05-05T17:17:23.288Z,16.83
2019-05-05T17:20:00.620Z,16.87
2019-05-05T17:22:54.481Z,16.90
2019-05-05T17:25:24.611Z,17.01
2019-05-05T17:27:54.591Z,17.01
2019-05-05T17:30:26.987Z,16.95
2019-05-05T17:32:55.426Z,16.89
2019-05-05T17:35:24.806Z,16.97
2019-05-05T17:37:55.812Z,17.04
2019-05-05T17:40:34.609Z,17.02
2019-05-05T17:43:27.839Z,17.00
2019-05-05T17:46:13.455Z,17.06
2019-05-05T17:49:14.171Z,16.88
2019-05-05T17:52:00.873Z,16.83
2019-05-05T17:54:35.967Z,16.83
2019-05-05T17:57:05.299Z,16.82
2019-05-05T17:59:34.718Z,16.77
2019-05-05T18:02:05.149Z,16.65
2019-05-05T18:04:34.541Z,16.61
2019-05-05T18:07:25.625Z,16.53
2019-05-05T18:09:57.904Z,16.41
2019-05-05T18:12:33.981Z,16.26
2019-05-05T18:15:04.483Z,16.24
2019-05-05T18:17:34.072Z,16.21
2019-05-05T18:20:04.447Z,16.14
2019-05-05T18:22:34.326Z,16.06
2019-05-05T18:25:03.843Z,15.96
2019-05-05T18:27:34.423Z,15.87
2019-05-05T18:30:04.111Z,15.73
2019-05-05T18:32:34.203Z,15.51
2019-05-05T18:35:06.634Z,15.30
2019-05-05T18:37:34.883Z,15.10
2019-05-05T18:40:04.264Z,14.86
2019-05-05T18:42:34.042Z,14.63
2019-05-05T18:45:07.631Z,14.45
2019-05-05T18:47:36.994Z,14.24
2019-05-05T18:50:07.018Z,14.07
2019-05-05T18:52:37.310Z,13.90
2019-05-05T18:55:07.217Z,13.75
2019-05-05T18:57:36.572Z,13.62
2019-05-05T19:00:08.895Z,13.47
2019-05-05T19:02:44.279Z,13.38
2019-05-05T19:05:23.781Z,13.26
2019-05-05T19:07:56.586Z,13.13
2019-05-05T19:10:26.056Z,13.03
2019-05-05T19:12:55.459Z,12.96
2019-05-05T19:15:24.891Z,12.88
2019-05-05T19:17:54.251Z,12.80
2019-05-05T19:20:35.651Z,12.72
2019-05-05T19:23:05.900Z,12.67
2019-05-05T19:25:35.879Z,12.54
2019-05-05T19:28:05.274Z,12.51
2019-05-05T19:30:36.168Z,12.44
2019-05-05T19:33:05.842Z,12.30
2019-05-05T19:35:43.963Z,12.30
2019-05-05T19:38:06.430Z,12.18
2019-05-05T19:40:35.836Z,12.18
2019-05-05T19:43:05.197Z,12.12
2019-05-05T19:45:34.640Z,11.95
2019-05-05T19:48:05.981Z,11.90
2019-05-05T19:50:44.555Z,11.83
2019-05-05T19:53:24.652Z,11.75
2019-05-05T19:55:56.373Z,11.73
2019-05-05T19:58:25.742Z,11.73
2019-05-05T20:00:57.527Z,11.57
2019-05-05T20:03:27.054Z,11.54
2019-05-05T20:05:56.459Z,11.51
2019-05-05T20:08:39.770Z,11.51
2019-05-05T20:10:56.913Z,11.45
2019-05-05T20:13:26.282Z,11.38
2019-05-05T20:16:04.364Z,11.38
2019-05-05T20:18:34.285Z,11.32
2019-05-05T20:21:07.059Z,11.28
2019-05-05T20:23:34.817Z,11.20
2019-05-05T20:26:04.258Z,11.16
2019-05-05T20:28:33.943Z,11.12
2019-05-05T20:31:03.715Z,11.12
2019-05-05T20:33:48.966Z,11.11
2019-05-05T20:36:23.683Z,10.96
2019-05-05T20:38:54.881Z,10.96
2019-05-05T20:41:24.956Z,10.90
2019-05-05T20:43:54.527Z,10.93
2019-05-05T20:46:23.936Z,10.93
2019-05-05T20:48:54.516Z,10.88
2019-05-05T20:51:24.350Z,10.85
2019-05-05T20:53:54.308Z,10.79
2019-05-05T20:56:23.753Z,10.63
2019-05-05T20:58:54.899Z,10.63
2019-05-05T21:01:24.699Z,10.55
2019-05-05T21:03:54.057Z,10.51
2019-05-05T21:06:24.563Z,10.45
2019-05-05T21:08:54.069Z,10.38
2019-05-05T21:11:24.653Z,10.38
2019-05-05T21:13:54.417Z,10.38
2019-05-05T21:16:23.850Z,10.31
2019-05-05T21:18:53.895Z,10.29
2019-05-05T21:21:26.151Z,10.24
2019-05-05T21:23:57.435Z,10.19
2019-05-05T21:26:45.689Z,10.14
2019-05-05T21:29:15.342Z,10.10
2019-05-05T21:31:44.743Z,10.07
2019-05-05T21:34:14.178Z,10.03
2019-05-05T21:36:44.824Z,9.97
2019-05-05T21:39:14.846Z,9.92
2019-05-05T21:41:44.314Z,9.89
2019-05-05T21:44:14.680Z,9.90
2019-05-05T21:46:44.223Z,9.86
2019-05-05T21:49:16.012Z,9.84
2019-05-05T21:52:09.114Z,9.85
2019-05-05T21:54:48.750Z,9.84
2019-05-05T21:57:52.288Z,9.79
2019-05-05T22:00:39.332Z,9.79
2019-05-05T22:03:09.357Z,9.78
2019-05-05T22:05:38.836Z,9.77
2019-05-05T22:08:08.183Z,9.75
2019-05-05T22:10:37.626Z,9.73
2019-05-05T22:13:06.936Z,9.71
2019-05-05T22:15:38.771Z,9.70
2019-05-05T22:18:08.094Z,9.68
2019-05-05T22:20:44.228Z,9.65
2019-05-05T22:23:14.527Z,9.63
2019-05-05T22:25:44.022Z,9.61
2019-05-05T22:28:13.399Z,9.57
2019-05-05T22:30:43.705Z,9.55
2019-05-05T22:33:13.735Z,9.54
2019-05-05T22:35:44.249Z,9.51
2019-05-05T22:38:13.835Z,9.50
2019-05-05T22:40:44.098Z,9.48
2019-05-05T22:43:14.439Z,9.45
2019-05-05T22:45:45.015Z,9.43
2019-05-05T22:48:14.547Z,9.41
2019-05-05T22:50:43.918Z,9.40
2019-05-05T22:53:13.991Z,9.38
2019-05-05T22:55:44.369Z,9.33
2019-05-05T22:58:14.366Z,9.29
2019-05-05T23:00:43.992Z,9.26
2019-05-05T23:03:20.770Z,9.22
2019-05-05T23:05:54.958Z,9.20
2019-05-05T23:08:24.434Z,9.18
2019-05-05T23:10:54.389Z,9.17
2019-05-05T23:13:23.891Z,9.15
2019-05-05T23:16:00.240Z,9.13
2019-05-05T23:18:29.601Z,9.11
2019-05-05T23:21:24.735Z,9.09
2019-05-05T23:24:24.883Z,9.09
2019-05-05T23:26:55.044Z,9.08
2019-05-05T23:29:26.475Z,9.07
2019-05-05T23:31:55.525Z,9.06
2019-05-05T23:34:24.968Z,9.05
2019-05-05T23:36:54.511Z,8.99
2019-05-05T23:39:24.284Z,8.97
2019-05-05T23:41:54.749Z,8.92
2019-05-05T23:44:24.224Z,8.89
2019-05-05T23:46:53.922Z,8.87
2019-05-05T23:49:24.211Z,8.81
2019-05-05T23:51:54.181Z,8.80
2019-05-05T23:54:24.690Z,8.76
2019-05-05T23:56:54.244Z,8.70
2019-05-05T23:59:24.047Z,8.69
